createdAt,value
2019-04-30T00:03:06.653Z,101227.34
2019-04-30T00:08:34.452Z,101227.75
2019-04-30T00:13:58.871Z,101223.05
2019-04-30T00:19:20.864Z,101221.05
2019-04-30T00:24:49.775Z,101215.27
2019-04-30T00:30:11.098Z,101212.53
2019-04-30T00:35:35.561Z,101206.13
2019-04-30T00:41:01.889Z,101198.45
2019-04-30T00:46:29.330Z,101196.16
2019-04-30T00:51:56.717Z,101199.69
2019-04-30T00:57:18.324Z,101196.80
2019-04-30T01:02:52.003Z,101202.59
2019-04-30T01:08:15.957Z,101195.71
2019-04-30T01:13:45.624Z,101192.78
2019-04-30T01:19:10.088Z,101191.28
2019-04-30T01:24:32.916Z,101188.76
2019-04-30T01:29:58.510Z,101195.00
2019-04-30T01:35:23.860Z,101186.41
2019-04-30T01:40:51.121Z,101185.28
2019-04-30T01:46:14.145Z,101181.97
2019-04-30T01:51:38.671Z,101183.41
2019-04-30T01:57:16.744Z,101183.53
2019-04-30T02:02:42.550Z,101185.16
2019-04-30T02:08:08.474Z,101184.31
2019-04-30T02:13:34.515Z,101188.17
2019-04-30T02:18:59.672Z,101189.04
2019-04-30T02:24:24.319Z,101190.27
2019-04-30T02:29:49.494Z,101190.25
2019-04-30T02:35:36.351Z,101188.02
2019-04-30T02:41:01.225Z,101194.41
2019-04-30T02:46:31.995Z,101194.08
2019-04-30T02:51:59.412Z,101202.89
2019-04-30T02:57:23.455Z,101195.49
2019-04-30T03:02:47.218Z,101199.01
2019-04-30T03:08:11.915Z,101197.67
2019-04-30T03:13:39.987Z,101200.95
2019-04-30T03:19:12.929Z,101208.77
2019-04-30T03:24:42.271Z,101212.23
2019-04-30T03:30:02.705Z,101211.36
2019-04-30T03:35:31.750Z,101210.41
2019-04-30T03:40:52.904Z,101214.18
2019-04-30T03:46:19.382Z,101214.18
2019-04-30T03:51:43.321Z,101216.23
2019-04-30T03:57:10.419Z,101220.13
2019-04-30T04:02:42.938Z,101220.67
2019-04-30T04:08:19.574Z,101226.70
2019-04-30T04:13:43.449Z,101230.72
2019-04-30T04:19:09.642Z,101235.56
2019-04-30T04:24:34.450Z,101236.08
2019-04-30T04:30:01.201Z,101242.52
2019-04-30T04:35:25.989Z,101243.33
2019-04-30T04:40:50.790Z,101238.92
2019-04-30T04:46:14.769Z,101235.81
2019-04-30T04:51:42.199Z,101238.36
2019-04-30T04:57:15.046Z,101241.88
2019-04-30T05:02:44.974Z,101244.75
2019-04-30T05:08:09.071Z,101242.45
2019-04-30T05:13:35.825Z,101238.31
2019-04-30T05:19:01.217Z,101246.45
2019-04-30T05:24:25.468Z,101252.09
2019-04-30T05:29:49.846Z,101246.31
2019-04-30T05:35:14.972Z,101249.85
2019-04-30T05:40:39.824Z,101247.79
2019-04-30T05:46:04.917Z,101244.66
2019-04-30T05:51:28.974Z,101260.80
2019-04-30T05:56:52.831Z,101256.02
2019-04-30T06:02:19.097Z,101255.23
2019-04-30T06:07:42.597Z,101254.75
2019-04-30T06:13:14.199Z,101254.59
2019-04-30T06:18:39.041Z,101258.19
2019-04-30T06:24:03.141Z,101256.80
2019-04-30T06:29:29.006Z,101259.42
2019-04-30T06:34:53.852Z,101259.17
2019-04-30T06:40:19.595Z,101259.16
2019-04-30T06:45:44.297Z,101261.72
2019-04-30T06:51:09.979Z,101254.15
2019-04-30T06:56:34.534Z,101256.61
2019-04-30T07:02:00.579Z,101259.83
2019-04-30T07:07:37.006Z,101254.23
2019-04-30T07:13:21.066Z,101260.84
2019-04-30T07:18:44.958Z,101255.84
2019-04-30T07:24:09.434Z,101273.08
2019-04-30T07:29:34.300Z,101267.54
2019-04-30T07:34:59.762Z,101266.39
2019-04-30T07:40:24.309Z,101267.03
2019-04-30T07:45:49.541Z,101266.44
2019-04-30T07:51:14.775Z,101270.41
2019-04-30T07:56:41.727Z,101268.40
2019-04-30T08:02:12.261Z,101268.08
2019-04-30T08:07:31.846Z,101261.45
2019-04-30T08:13:08.657Z,101262.31
2019-04-30T08:18:22.429Z,101268.09
2019-04-30T08:23:48.821Z,101269.89
2019-04-30T08:29:13.599Z,101264.90
2019-04-30T08:34:39.398Z,101270.31
2019-04-30T08:40:03.639Z,101270.59
2019-04-30T08:45:31.077Z,101269.98
2019-04-30T08:51:00.731Z,101263.97
2019-04-30T08:56:25.358Z,101258.47
2019-04-30T09:01:50.098Z,101258.47
2019-04-30T09:07:13.675Z,101257.55
2019-04-30T09:12:39.870Z,101257.55
2019-04-30T09:18:07.069Z,101261.73
2019-04-30T09:23:42.928Z,101245.16
2019-04-30T09:28:54.239Z,101241.42
2019-04-30T09:34:21.024Z,101251.77
2019-04-30T09:39:45.543Z,101244.33
2019-04-30T09:45:10.445Z,101245.80
2019-04-30T09:50:34.942Z,101240.37
2019-04-30T09:55:59.636Z,101245.12
2019-04-30T10:01:23.452Z,101235.73
2019-04-30T10:06:49.952Z,101239.08
2019-04-30T10:12:19.392Z,101229.23
2019-04-30T10:17:43.905Z,101226.73
2019-04-30T10:23:09.502Z,101208.88
2019-04-30T10:28:36.313Z,101211.74
2019-04-30T10:34:01.518Z,101206.09
2019-04-30T10:39:29.725Z,101201.84
2019-04-30T10:44:54.183Z,101199.02
2019-04-30T10:50:19.394Z,101195.83
2019-04-30T10:55:43.189Z,101195.33
2019-04-30T11:01:09.592Z,101192.13
2019-04-30T11:06:34.339Z,101182.70
2019-04-30T11:11:59.423Z,101192.19
2019-04-30T11:17:24.281Z,101177.25
2019-04-30T11:22:48.207Z,101171.17
2019-04-30T11:28:12.845Z,101174.27
2019-04-30T11:33:37.975Z,101171.33
2019-04-30T11:39:02.535Z,101178.59
2019-04-30T11:44:35.999Z,101178.83
2019-04-30T11:49:55.253Z,101172.41
2019-04-30T11:55:20.307Z,101169.23
2019-04-30T12:00:46.967Z,101162.67
2019-04-30T12:06:11.515Z,101155.62
2019-04-30T12:11:36.815Z,101149.51
2019-04-30T12:17:01.096Z,101153.20
2019-04-30T12:22:25.825Z,101148.69
2019-04-30T12:27:49.668Z,101142.25
2019-04-30T12:33:14.446Z,101138.81
2019-04-30T12:38:38.301Z,101129.87
2019-04-30T12:44:02.980Z,101128.83
2019-04-30T12:49:29.331Z,101129.03
2019-04-30T12:54:59.871Z,101119.33
2019-04-30T13:00:39.122Z,101118.91
2019-04-30T13:06:04.069Z,101116.60
2019-04-30T13:11:30.796Z,101113.38
2019-04-30T13:16:54.426Z,101118.89
2019-04-30T13:22:19.013Z,101103.61
2019-04-30T13:27:47.435Z,101098.86
2019-04-30T13:33:20.253Z,101096.88
2019-04-30T13:38:52.546Z,101084.25
2019-04-30T13:44:22.126Z,101082.83
2019-04-30T13:49:46.434Z,101082.18
2019-04-30T13:55:11.083Z,101072.38
2019-04-30T14:00:35.557Z,101072.26
2019-04-30T14:06:00.070Z,101065.22
2019-04-30T14:11:25.174Z,101069.47
2019-04-30T14:16:49.588Z,101064.08
2019-04-30T14:22:13.546Z,101060.08
2019-04-30T14:27:49.030Z,101062.18
2019-04-30T14:33:03.751Z,101057.27
2019-04-30T14:38:27.610Z,101054.80
2019-04-30T14:43:58.639Z,101052.44
2019-04-30T14:50:01.600Z,101054.96
2019-04-30T14:55:31.556Z,101050.14
2019-04-30T15:01:05.969Z,101051.22
2019-04-30T15:06:30.641Z,101047.73
2019-04-30T15:11:55.301Z,101048.56
2019-04-30T15:17:20.026Z,101044.56
2019-04-30T15:28:32.440Z,101048.88
2019-04-30T15:34:03.320Z,101046.48
2019-04-30T15:39:33.534Z,101049.39
2019-04-30T15:44:59.433Z,101049.38
2019-04-30T15:50:23.720Z,101044.71
2019-04-30T15:55:47.355Z,101041.72
2019-04-30T16:01:12.864Z,101047.58
2019-04-30T16:06:38.541Z,101039.91
2019-04-30T16:12:11.676Z,101030.73
2019-04-30T16:17:39.135Z,101035.20
2019-04-30T16:23:04.055Z,101023.41
2019-04-30T16:28:29.529Z,101027.57
2019-04-30T16:33:54.385Z,101026.86
2019-04-30T16:39:19.918Z,101021.81
2019-04-30T16:44:44.585Z,101017.83
2019-04-30T16:50:09.834Z,101012.03
2019-04-30T16:55:34.393Z,101006.92
2019-04-30T17:00:59.752Z,101010.62
2019-04-30T17:06:26.475Z,101013.27
2019-04-30T17:12:00.281Z,101008.36
2019-04-30T17:17:25.154Z,101006.41
2019-04-30T17:22:50.415Z,101005.77
2019-04-30T17:28:15.363Z,101003.02
2019-04-30T17:33:39.721Z,101001.06
2019-04-30T17:39:05.493Z,100999.61
2019-04-30T17:44:29.501Z,101006.84
2019-04-30T17:49:53.480Z,101004.60
2019-04-30T17:55:19.511Z,101000.22
2019-04-30T18:00:48.770Z,100997.52
2019-04-30T18:06:12.652Z,101001.67
2019-04-30T18:11:36.722Z,101006.74
2019-04-30T18:17:01.163Z,101005.83
2019-04-30T18:22:44.662Z,101013.06
2019-04-30T18:28:09.169Z,101012.12
2019-04-30T18:33:34.344Z,101013.75
2019-04-30T18:38:59.017Z,101017.64
2019-04-30T18:44:23.200Z,101024.95
2019-04-30T18:49:49.525Z,101023.48
2019-04-30T18:55:14.140Z,101028.82
2019-04-30T19:00:41.182Z,101032.52
2019-04-30T19:06:22.440Z,101030.55
2019-04-30T19:11:45.204Z,101041.72
2019-04-30T19:17:29.535Z,101038.77
2019-04-30T19:22:53.935Z,101045.11
2019-04-30T19:28:18.895Z,101041.78
2019-04-30T19:33:43.250Z,101042.61
2019-04-30T19:39:09.843Z,101046.19
2019-04-30T19:44:34.523Z,101051.25
2019-04-30T19:49:59.519Z,101047.57
2019-04-30T19:55:23.180Z,101049.16
2019-04-30T20:00:49.874Z,101042.82
2019-04-30T20:06:13.552Z,101053.91
2019-04-30T20:11:39.827Z,101046.50
2019-04-30T20:17:04.125Z,101054.19
2019-04-30T20:22:29.224Z,101047.64
2019-04-30T20:27:53.870Z,101052.30
2019-04-30T20:33:19.069Z,101046.81
2019-04-30T20:39:18.200Z,101047.05
2019-04-30T20:44:41.904Z,101048.23
2019-04-30T20:50:06.675Z,101044.25
2019-04-30T20:55:31.346Z,101036.10
2019-04-30T21:01:03.605Z,101026.59
2019-04-30T21:06:21.419Z,101027.92
2019-04-30T21:11:46.463Z,101027.62
2019-04-30T21:17:11.093Z,101025.81
2019-04-30T21:22:35.125Z,101023.95
2019-04-30T21:27:59.942Z,101021.79
2019-04-30T21:33:45.944Z,101017.50
2019-04-30T21:39:10.904Z,101016.82
2019-04-30T21:44:35.808Z,101011.67
2019-04-30T21:49:59.618Z,101003.73
2019-04-30T21:55:24.343Z,101001.84
2019-04-30T22:01:10.645Z,101001.34
2019-04-30T22:06:35.048Z,100999.91
2019-04-30T22:11:59.886Z,100990.23
2019-04-30T22:17:24.366Z,100993.13
2019-04-30T22:22:49.643Z,100984.80
2019-04-30T22:28:13.483Z,100980.67
2019-04-30T22:33:39.183Z,100979.72
2019-04-30T22:39:41.129Z,100975.59
2019-04-30T22:45:09.999Z,100971.58
2019-04-30T22:50:33.903Z,100961.33
2019-04-30T22:55:59.474Z,100962.39
2019-04-30T23:01:35.572Z,100953.77
2019-04-30T23:06:59.734Z,100956.21
2019-04-30T23:12:24.642Z,100943.17
2019-04-30T23:17:48.954Z,100931.31
2019-04-30T23:23:13.724Z,100927.83
2019-04-30T23:28:37.373Z,100920.23
2019-04-30T23:34:00.998Z,100913.80
2019-04-30T23:39:30.371Z,100912.94
2019-04-30T23:44:56.174Z,100903.77
2019-04-30T23:50:20.438Z,100908.91
2019-04-30T23:55:45.235Z,100907.03
